createdAt,value
2023-04-16T00:01:27.784Z,24.37
2023-04-16T00:03:55.333Z,26.90
2023-04-16T00:06:22.888Z,27.80
2023-04-16T00:08:50.262Z,26.20
2023-04-16T00:11:17.193Z,27.70
2023-04-16T00:13:43.811Z,29.40
2023-04-16T00:16:10.564Z,28.50
2023-04-16T00:18:37.215Z,29.57
2023-04-16T00:21:03.983Z,29.10
2023-04-16T00:23:30.968Z,28.97
2023-04-16T00:25:59.753Z,28.27
2023-04-16T00:28:27.553Z,27.23
2023-04-16T00:30:54.902Z,29.17
2023-04-16T00:33:21.690Z,28.30
2023-04-16T00:35:48.799Z,26.50
2023-04-16T00:38:15.766Z,28.00
2023-04-16T00:40:42.443Z,26.30
2023-04-16T00:43:09.109Z,27.53
2023-04-16T00:45:36.551Z,29.50
2023-04-16T00:48:04.729Z,28.80
2023-04-16T00:50:32.194Z,29.00
2023-04-16T00:52:59.487Z,29.07
2023-04-16T00:55:26.200Z,32.63
2023-04-16T00:57:53.240Z,30.33
2023-04-16T01:00:21.315Z,29.53
2023-04-16T01:02:48.161Z,27.77
2023-04-16T01:05:14.867Z,30.40
2023-04-16T01:07:41.521Z,28.90
2023-04-16T01:10:08.770Z,28.50
2023-04-16T01:12:35.406Z,29.87
2023-04-16T01:15:02.458Z,30.07
2023-04-16T01:17:29.154Z,30.10
2023-04-16T01:20:00.244Z,29.57
2023-04-16T01:22:28.455Z,29.50
2023-04-16T01:24:55.081Z,28.47
2023-04-16T01:27:21.735Z,29.43
2023-04-16T01:29:48.338Z,28.93
2023-04-16T01:32:21.025Z,29.23
2023-04-16T01:34:47.752Z,29.63
2023-04-16T01:37:14.467Z,27.37
2023-04-16T01:39:41.071Z,27.07
2023-04-16T01:42:08.237Z,29.50
2023-04-16T01:44:34.813Z,29.80
2023-04-16T01:47:01.836Z,29.77
2023-04-16T01:49:29.410Z,30.33
2023-04-16T01:51:56.101Z,32.17
2023-04-16T01:54:23.226Z,32.10
2023-04-16T01:56:49.847Z,31.17
2023-04-16T01:59:17.042Z,32.10
2023-04-16T02:01:44.495Z,32.10
2023-04-16T02:04:12.531Z,28.93
2023-04-16T02:06:39.475Z,30.10
2023-04-16T02:09:06.068Z,30.60
2023-04-16T02:11:32.808Z,34.80
2023-04-16T02:13:59.609Z,33.63
2023-04-16T02:16:26.416Z,32.07
2023-04-16T02:18:58.425Z,30.40
2023-04-16T02:21:27.418Z,32.33
2023-04-16T02:23:54.032Z,33.23
2023-04-16T02:26:26.572Z,32.10
2023-04-16T02:28:55.575Z,33.37
2023-04-16T02:31:28.369Z,33.30
2023-04-16T02:33:56.235Z,35.30
2023-04-16T02:36:22.942Z,36.70
2023-04-16T02:38:49.845Z,35.10
2023-04-16T02:41:16.538Z,35.37
2023-04-16T02:43:43.178Z,38.37
2023-04-16T02:46:09.831Z,35.80
2023-04-16T02:48:36.512Z,35.40
2023-04-16T02:51:03.260Z,37.27
2023-04-16T02:53:29.934Z,38.67
2023-04-16T02:55:56.852Z,39.27
2023-04-16T02:58:25.221Z,35.57
2023-04-16T03:00:55.323Z,37.57
2023-04-16T03:03:22.295Z,37.67
2023-04-16T03:05:49.323Z,39.50
2023-04-16T03:08:16.551Z,38.20
2023-04-16T03:10:43.232Z,39.63
2023-04-16T03:13:10.184Z,37.30
2023-04-16T03:15:36.879Z,37.97
2023-04-16T03:18:03.708Z,38.73
2023-04-16T03:20:30.723Z,39.37
2023-04-16T03:22:57.367Z,36.77
2023-04-16T03:25:23.980Z,34.97
2023-04-16T03:27:51.243Z,39.10
2023-04-16T03:30:18.513Z,37.37
2023-04-16T03:32:45.441Z,37.80
2023-04-16T03:35:12.680Z,39.40
2023-04-16T03:37:39.816Z,37.90
2023-04-16T03:40:07.412Z,39.87
2023-04-16T03:42:34.476Z,36.93
2023-04-16T03:45:02.316Z,40.97
2023-04-16T03:47:29.002Z,40.03
2023-04-16T03:49:59.224Z,37.30
2023-04-16T03:52:28.039Z,34.03
2023-04-16T03:54:54.988Z,37.43
2023-04-16T03:57:27.184Z,39.67
2023-04-16T03:59:57.841Z,39.67
2023-04-16T04:02:27.121Z,39.20
2023-04-16T04:04:54.057Z,37.90
2023-04-16T04:07:20.778Z,40.67
2023-04-16T04:09:47.432Z,44.43
2023-04-16T04:12:15.040Z,46.57
2023-04-16T04:14:43.139Z,45.60
2023-04-16T04:17:09.897Z,46.07
2023-04-16T04:19:38.823Z,46.60
2023-04-16T04:22:07.855Z,46.50
2023-04-16T04:24:37.038Z,48.10
2023-04-16T04:29:31.505Z,45.90
2023-04-16T04:31:58.954Z,49.00
2023-04-16T04:34:25.760Z,51.50
2023-04-16T04:36:55.528Z,51.47
2023-04-16T04:39:22.314Z,52.80
2023-04-16T04:41:50.179Z,50.70
2023-04-16T04:44:18.217Z,49.57
2023-04-16T04:46:45.366Z,51.90
2023-04-16T04:49:12.870Z,49.87
2023-04-16T04:51:39.729Z,53.00
2023-04-16T04:54:06.407Z,50.00
2023-04-16T04:56:33.185Z,52.30
2023-04-16T04:58:59.778Z,50.03
2023-04-16T05:01:26.538Z,51.97
2023-04-16T05:03:53.249Z,51.13
2023-04-16T05:06:19.852Z,50.67
2023-04-16T05:08:46.452Z,53.63
2023-04-16T05:11:13.082Z,50.07
2023-04-16T05:13:39.757Z,49.20
2023-04-16T05:16:07.185Z,48.57
2023-04-16T05:18:33.907Z,46.23
2023-04-16T05:21:00.576Z,51.90
2023-04-16T05:23:28.057Z,52.13
2023-04-16T05:25:54.707Z,52.83
2023-04-16T05:28:21.326Z,48.47
2023-04-16T05:30:47.997Z,49.13
2023-04-16T05:33:14.636Z,53.73
2023-04-16T05:35:41.344Z,51.63
2023-04-16T05:38:08.098Z,49.40
2023-04-16T05:40:35.291Z,54.37
2023-04-16T05:43:01.915Z,52.93
2023-04-16T05:45:28.530Z,57.57
2023-04-16T05:47:55.294Z,56.00
2023-04-16T05:50:21.993Z,55.87
2023-04-16T05:52:48.632Z,54.57
2023-04-16T05:55:15.325Z,54.13
2023-04-16T05:57:41.977Z,54.80
2023-04-16T06:00:09.039Z,58.97
2023-04-16T06:02:41.772Z,58.80
2023-04-16T06:05:08.759Z,56.30
2023-04-16T06:07:35.719Z,53.17
2023-04-16T06:10:02.438Z,51.60
2023-04-16T06:12:29.117Z,53.60
2023-04-16T06:14:56.167Z,53.73
2023-04-16T06:17:22.960Z,53.40
2023-04-16T06:19:49.576Z,56.87
2023-04-16T06:22:16.248Z,53.90
2023-04-16T06:24:42.908Z,57.83
2023-04-16T06:27:09.592Z,55.60
2023-04-16T06:29:41.183Z,56.47
2023-04-16T06:32:08.500Z,54.00
2023-04-16T06:34:36.125Z,52.93
2023-04-16T06:37:03.264Z,57.03
2023-04-16T06:39:30.136Z,56.17
2023-04-16T06:41:57.134Z,55.83
2023-04-16T06:44:23.717Z,54.57
2023-04-16T06:46:51.118Z,57.53
2023-04-16T06:49:17.797Z,54.97
2023-04-16T06:51:44.579Z,61.53
2023-04-16T06:54:11.209Z,61.37
2023-04-16T06:56:37.921Z,57.30
2023-04-16T06:59:04.700Z,49.30
2023-04-16T07:01:31.530Z,51.47
2023-04-16T07:03:58.697Z,53.87
2023-04-16T07:06:27.032Z,47.07
2023-04-16T07:08:53.672Z,50.83
2023-04-16T07:11:20.880Z,51.00
2023-04-16T07:13:47.536Z,49.83
2023-04-16T07:16:14.266Z,50.97
2023-04-16T07:18:40.908Z,54.90
2023-04-16T07:21:07.532Z,54.37
2023-04-16T07:23:34.216Z,49.90
2023-04-16T07:26:00.938Z,52.90
2023-04-16T07:28:27.594Z,53.40
2023-04-16T07:30:54.388Z,52.00
2023-04-16T07:33:21.060Z,52.17
2023-04-16T07:35:48.036Z,55.77
2023-04-16T07:38:16.170Z,47.97
2023-04-16T07:40:42.877Z,49.97
2023-04-16T07:43:10.021Z,48.30
2023-04-16T07:45:36.808Z,51.20
2023-04-16T07:48:03.996Z,50.47
2023-04-16T07:50:30.781Z,49.53
2023-04-16T07:52:57.451Z,47.63
2023-04-16T07:55:24.214Z,49.00
2023-04-16T07:57:51.041Z,46.00
2023-04-16T08:00:17.851Z,49.70
2023-04-16T08:02:45.037Z,47.90
2023-04-16T08:05:13.491Z,48.20
2023-04-16T08:07:40.210Z,47.63
2023-04-16T08:10:07.543Z,49.77
2023-04-16T08:12:34.650Z,49.80
2023-04-16T08:15:01.284Z,48.30
2023-04-16T08:17:29.359Z,48.73
2023-04-16T08:19:56.125Z,49.37
2023-04-16T08:22:22.805Z,47.57
2023-04-16T08:24:50.148Z,45.10
2023-04-16T08:27:19.923Z,41.33
2023-04-16T08:29:47.721Z,45.80
2023-04-16T08:32:14.350Z,43.13
2023-04-16T08:34:41.920Z,42.00
2023-04-16T08:37:08.938Z,42.40
2023-04-16T08:39:35.813Z,41.20
2023-04-16T08:42:06.126Z,41.90
2023-04-16T08:44:34.837Z,40.60
2023-04-16T08:47:02.283Z,39.93
2023-04-16T08:49:29.769Z,38.33
2023-04-16T08:51:57.005Z,39.37
2023-04-16T08:54:26.423Z,35.57
2023-04-16T08:56:53.449Z,36.33
2023-04-16T08:59:20.369Z,35.93
2023-04-16T09:01:49.003Z,34.50
2023-04-16T09:04:16.478Z,35.70
2023-04-16T09:06:43.724Z,35.33
2023-04-16T09:09:11.550Z,35.83
2023-04-16T09:11:39.562Z,35.07
2023-04-16T09:14:09.722Z,32.57
2023-04-16T09:16:36.805Z,32.80
2023-04-16T09:19:03.818Z,33.60
2023-04-16T09:21:30.904Z,31.10
2023-04-16T09:23:58.716Z,32.80
2023-04-16T09:26:25.946Z,33.00
2023-04-16T09:28:52.619Z,31.77
2023-04-16T09:31:19.902Z,32.33
2023-04-16T09:34:06.946Z,31.00
2023-04-16T09:36:34.534Z,29.00
2023-04-16T09:39:02.296Z,29.27
2023-04-16T09:41:31.125Z,30.43
2023-04-16T09:44:02.025Z,30.10
2023-04-16T09:46:34.710Z,31.13
2023-04-16T09:49:15.320Z,31.30
2023-04-16T09:51:44.037Z,30.67
2023-04-16T09:54:11.101Z,30.80
2023-04-16T09:56:42.471Z,27.90
2023-04-16T09:59:22.351Z,31.03
2023-04-16T10:01:50.225Z,26.73
2023-04-16T10:04:17.158Z,30.33
2023-04-16T10:06:44.129Z,27.70
2023-04-16T10:09:11.077Z,29.33
2023-04-16T10:11:38.228Z,25.63
2023-04-16T10:14:05.284Z,25.60
2023-04-16T10:16:32.867Z,25.40
2023-04-16T10:18:59.779Z,27.20
2023-04-16T10:21:33.467Z,26.30
2023-04-16T10:24:00.633Z,26.47
2023-04-16T10:26:28.940Z,24.13
2023-04-16T10:28:56.488Z,26.00
2023-04-16T10:31:23.558Z,24.10
2023-04-16T10:33:50.438Z,24.10
2023-04-16T10:36:23.575Z,24.23
2023-04-16T10:38:52.234Z,26.60
2023-04-16T10:41:21.695Z,25.47
2023-04-16T10:43:50.365Z,23.30
2023-04-16T10:46:26.506Z,24.30
2023-04-16T10:48:54.433Z,22.67
2023-04-16T10:51:32.554Z,23.10
2023-04-16T10:54:21.739Z,22.77
2023-04-16T10:56:49.731Z,19.97
2023-04-16T10:59:21.997Z,20.53
2023-04-16T11:01:55.840Z,20.40
2023-04-16T11:04:27.250Z,20.00
2023-04-16T11:07:07.514Z,20.20
2023-04-16T11:09:52.495Z,20.10
2023-04-16T11:12:40.862Z,18.83
2023-04-16T11:15:08.959Z,19.80
2023-04-16T11:17:40.087Z,17.77
2023-04-16T11:20:21.609Z,19.20
2023-04-16T11:22:49.610Z,21.00
2023-04-16T11:25:23.531Z,20.97
2023-04-16T11:27:51.134Z,19.40
2023-04-16T11:30:19.366Z,16.83
2023-04-16T11:32:46.022Z,17.93
2023-04-16T11:35:19.506Z,18.40
2023-04-16T11:37:48.269Z,18.10
2023-04-16T11:40:15.337Z,17.70
2023-04-16T11:42:42.626Z,18.37
2023-04-16T11:45:11.737Z,18.43
2023-04-16T11:47:46.677Z,18.83
2023-04-16T11:50:23.411Z,15.50
2023-04-16T11:52:51.816Z,17.93
2023-04-16T11:55:19.125Z,17.47
2023-04-16T11:57:46.164Z,17.00
2023-04-16T12:00:13.853Z,17.77
2023-04-16T12:02:46.155Z,17.80
2023-04-16T12:05:34.456Z,15.93
2023-04-16T12:08:03.161Z,18.40
2023-04-16T12:10:31.010Z,18.47
2023-04-16T12:13:14.428Z,18.00
2023-04-16T12:15:48.985Z,17.90
2023-04-16T12:18:16.459Z,17.33
2023-04-16T12:20:44.828Z,17.87
2023-04-16T12:23:29.539Z,16.20
2023-04-16T12:26:02.897Z,16.57
2023-04-16T12:28:35.324Z,16.70
2023-04-16T12:31:03.004Z,17.30
2023-04-16T12:33:30.021Z,15.97
2023-04-16T12:35:56.707Z,15.57
2023-04-16T12:38:24.623Z,16.03
2023-04-16T12:40:51.832Z,16.10
2023-04-16T12:43:19.722Z,14.10
2023-04-16T12:45:46.668Z,14.37
2023-04-16T12:48:13.337Z,15.73
2023-04-16T12:50:40.099Z,12.57
2023-04-16T12:53:06.894Z,15.03
2023-04-16T12:55:34.213Z,14.77
2023-04-16T12:58:01.541Z,14.40
2023-04-16T13:00:28.907Z,14.27
2023-04-16T13:02:55.992Z,13.47
2023-04-16T13:05:22.713Z,14.40
2023-04-16T13:07:49.362Z,13.40
2023-04-16T13:10:16.493Z,14.67
2023-04-16T13:12:43.106Z,13.30
2023-04-16T13:15:10.723Z,14.13
2023-04-16T13:17:37.944Z,13.40
2023-04-16T13:20:05.039Z,13.00
2023-04-16T13:22:31.633Z,12.83
2023-04-16T13:24:58.275Z,14.43
2023-04-16T13:27:24.940Z,12.47
2023-04-16T13:29:51.596Z,17.20
2023-04-16T13:32:18.841Z,14.90
2023-04-16T13:34:45.589Z,13.90
2023-04-16T13:37:12.255Z,13.37
2023-04-16T13:39:39.043Z,15.53
2023-04-16T13:42:05.795Z,13.47
2023-04-16T13:44:32.415Z,14.00
2023-04-16T13:47:00.597Z,15.87
2023-04-16T13:49:28.152Z,13.10
2023-04-16T13:51:54.846Z,15.70
2023-04-16T13:54:21.482Z,15.23
2023-04-16T13:56:50.454Z,15.00
2023-04-16T13:59:17.370Z,14.40
2023-04-16T14:01:44.295Z,16.10
2023-04-16T14:04:10.943Z,16.23
2023-04-16T14:06:37.570Z,16.73
2023-04-16T14:09:04.760Z,16.10
2023-04-16T14:11:31.562Z,14.93
2023-04-16T14:13:58.316Z,15.80
2023-04-16T14:16:25.582Z,16.73
2023-04-16T14:18:52.229Z,16.43
2023-04-16T14:21:19.200Z,15.07
2023-04-16T14:23:45.865Z,15.97
2023-04-16T14:26:12.610Z,15.10
2023-04-16T14:28:40.798Z,16.37
2023-04-16T14:31:07.775Z,18.20
2023-04-16T14:33:34.744Z,15.77
2023-04-16T14:36:03.144Z,16.77
2023-04-16T14:38:31.083Z,15.80
2023-04-16T14:40:57.772Z,14.90
2023-04-16T14:43:24.422Z,15.10
2023-04-16T14:45:51.619Z,14.87
2023-04-16T14:48:18.450Z,16.10
2023-04-16T14:50:45.262Z,16.27
2023-04-16T14:53:12.202Z,16.03
2023-04-16T14:55:38.860Z,16.10
2023-04-16T14:58:05.512Z,9.07
2023-04-16T15:00:34.645Z,16.50
2023-04-16T15:03:01.597Z,20.87
2023-04-16T15:05:29.566Z,22.53
2023-04-16T15:07:56.186Z,18.07
2023-04-16T15:10:22.880Z,16.90
2023-04-16T15:12:49.540Z,17.30
2023-04-16T15:15:16.244Z,16.73
2023-04-16T15:17:43.721Z,16.83
2023-04-16T15:20:10.887Z,18.13
2023-04-16T15:22:38.268Z,17.30
2023-04-16T15:25:06.251Z,16.93
2023-04-16T15:27:33.450Z,16.90
2023-04-16T15:30:00.319Z,16.90
2023-04-16T15:32:27.148Z,16.00
2023-04-16T15:34:53.802Z,18.37
2023-04-16T15:37:20.469Z,18.20
2023-04-16T15:39:47.095Z,18.20
2023-04-16T15:42:13.729Z,17.90
2023-04-16T15:44:40.891Z,17.83
2023-04-16T15:47:08.684Z,17.50
2023-04-16T15:49:36.185Z,18.83
2023-04-16T15:52:03.259Z,19.20
2023-04-16T15:54:30.935Z,18.47
2023-04-16T15:56:58.708Z,20.67
2023-04-16T15:59:26.536Z,21.47
2023-04-16T16:01:53.547Z,19.70
2023-04-16T16:04:22.681Z,19.47
2023-04-16T16:06:50.145Z,18.40
2023-04-16T16:09:16.932Z,19.20
2023-04-16T16:11:44.287Z,18.73
2023-04-16T16:14:10.965Z,18.47
2023-04-16T16:16:37.932Z,20.10
2023-04-16T16:19:04.928Z,18.80
2023-04-16T16:21:32.585Z,20.30
2023-04-16T16:23:59.320Z,19.90
2023-04-16T16:26:26.040Z,18.90
2023-04-16T16:28:52.698Z,17.30
2023-04-16T16:31:19.480Z,17.40
2023-04-16T16:33:46.158Z,17.60
2023-04-16T16:36:12.866Z,18.90
2023-04-16T16:38:42.411Z,20.43
2023-04-16T16:41:09.511Z,20.03
2023-04-16T16:43:36.819Z,20.80
2023-04-16T16:46:03.738Z,19.30
2023-04-16T16:48:30.570Z,18.47
2023-04-16T16:50:57.284Z,20.17
2023-04-16T16:53:24.096Z,19.00
2023-04-16T16:55:51.241Z,21.60
2023-04-16T16:58:18.340Z,18.77
2023-04-16T17:00:45.075Z,18.60
2023-04-16T17:03:12.280Z,20.00
2023-04-16T17:05:39.145Z,19.13
2023-04-16T17:08:06.592Z,18.87
2023-04-16T17:10:33.297Z,16.77
2023-04-16T17:12:59.962Z,20.43
2023-04-16T17:15:26.787Z,17.70
2023-04-16T17:17:54.488Z,17.97
2023-04-16T17:20:21.161Z,19.60
2023-04-16T17:22:47.856Z,17.73
2023-04-16T17:25:14.923Z,17.80
2023-04-16T17:27:41.879Z,19.87
2023-04-16T17:30:09.037Z,19.83
2023-04-16T17:32:36.493Z,21.20
2023-04-16T17:35:04.248Z,19.63
2023-04-16T17:37:31.312Z,20.77
2023-04-16T17:39:57.984Z,19.90
2023-04-16T17:42:24.840Z,19.20
2023-04-16T17:44:51.806Z,18.93
2023-04-16T17:47:18.468Z,19.40
2023-04-16T17:49:45.355Z,19.50
2023-04-16T17:52:11.988Z,18.47
2023-04-16T17:54:38.632Z,19.27
2023-04-16T17:57:05.906Z,19.00
2023-04-16T17:59:32.964Z,17.50
2023-04-16T18:01:59.926Z,17.90
2023-04-16T18:04:26.745Z,17.73
2023-04-16T18:06:53.539Z,17.77
2023-04-16T18:09:20.268Z,23.10
2023-04-16T18:11:46.989Z,23.07
2023-04-16T18:14:16.712Z,20.10
2023-04-16T18:16:43.577Z,21.27
2023-04-16T18:19:10.262Z,22.83
2023-04-16T18:21:37.086Z,20.33
2023-04-16T18:24:03.884Z,23.10
2023-04-16T18:26:31.153Z,23.20
2023-04-16T18:28:59.547Z,22.50
2023-04-16T18:31:26.865Z,21.47
2023-04-16T18:33:58.032Z,23.40
2023-04-16T18:36:26.492Z,23.93
2023-04-16T18:39:01.761Z,20.63
2023-04-16T18:41:41.566Z,20.13
2023-04-16T18:44:10.571Z,21.10
2023-04-16T18:46:37.275Z,23.10
2023-04-16T18:49:03.960Z,21.97
2023-04-16T18:51:30.686Z,22.70
2023-04-16T18:53:57.759Z,31.17
2023-04-16T18:56:24.629Z,20.83
2023-04-16T18:58:51.257Z,19.00
2023-04-16T19:01:18.232Z,21.50
2023-04-16T19:03:45.377Z,29.13
2023-04-16T19:06:12.072Z,33.30
2023-04-16T19:08:38.771Z,29.80
2023-04-16T19:11:05.390Z,23.20
2023-04-16T19:13:32.283Z,30.37
2023-04-16T19:16:00.284Z,42.40
2023-04-16T19:18:27.149Z,42.23
2023-04-16T19:21:01.839Z,24.20
2023-04-16T19:23:29.003Z,31.00
2023-04-16T19:25:56.653Z,26.77
2023-04-16T19:28:24.229Z,27.07
2023-04-16T19:30:52.080Z,28.07
2023-04-16T19:33:18.917Z,24.87
2023-04-16T19:35:46.402Z,25.30
2023-04-16T19:38:13.320Z,24.33
2023-04-16T19:40:41.032Z,24.60
2023-04-16T19:43:07.770Z,25.00
2023-04-16T19:45:35.009Z,23.30
2023-04-16T19:48:01.689Z,25.50
2023-04-16T19:50:28.355Z,25.73
2023-04-16T19:52:54.954Z,24.03
2023-04-16T19:55:22.570Z,25.13
2023-04-16T19:57:49.219Z,24.90
2023-04-16T20:00:16.928Z,23.80
2023-04-16T20:02:44.277Z,25.17
2023-04-16T20:05:10.975Z,26.33
2023-04-16T20:07:37.707Z,26.83
2023-04-16T20:10:04.644Z,27.70
2023-04-16T20:12:31.266Z,28.90
2023-04-16T20:14:57.878Z,28.00
2023-04-16T20:17:24.534Z,28.80
2023-04-16T20:19:51.382Z,25.73
2023-04-16T20:22:18.608Z,27.97
2023-04-16T20:24:48.712Z,28.10
2023-04-16T20:27:16.845Z,28.80
2023-04-16T20:29:43.564Z,32.03
2023-04-16T20:32:10.234Z,28.97
2023-04-16T20:34:37.893Z,29.93
2023-04-16T20:37:04.805Z,28.80
2023-04-16T20:39:34.029Z,29.27
2023-04-16T20:42:04.033Z,29.17
2023-04-16T20:44:40.058Z,29.27
2023-04-16T20:47:15.199Z,28.17
2023-04-16T20:49:46.223Z,30.20
2023-04-16T20:52:13.859Z,30.23
2023-04-16T20:54:40.879Z,32.00
2023-04-16T20:57:07.664Z,31.20
2023-04-16T20:59:34.429Z,32.60
2023-04-16T21:02:01.427Z,35.30
2023-04-16T21:04:28.535Z,33.37
2023-04-16T21:06:55.354Z,33.20
2023-04-16T21:09:23.082Z,35.07
2023-04-16T21:11:49.746Z,36.67
2023-04-16T21:14:16.477Z,34.20
2023-04-16T21:16:43.138Z,34.57
2023-04-16T21:19:09.994Z,34.47
2023-04-16T21:21:38.104Z,36.90
2023-04-16T21:24:05.517Z,37.10
2023-04-16T21:26:32.184Z,35.53
2023-04-16T21:28:58.856Z,37.50
2023-04-16T21:31:25.589Z,36.07
2023-04-16T21:33:52.330Z,36.57
2023-04-16T21:36:19.004Z,37.77
2023-04-16T21:38:45.626Z,34.80
2023-04-16T21:41:12.274Z,35.57
2023-04-16T21:43:38.877Z,36.20
2023-04-16T21:46:05.787Z,30.80
2023-04-16T21:48:32.429Z,29.43
2023-04-16T21:51:05.942Z,32.50
2023-04-16T21:53:33.010Z,30.23
2023-04-16T21:55:59.800Z,32.13
2023-04-16T21:58:26.569Z,30.07
2023-04-16T22:00:53.281Z,29.13
2023-04-16T22:03:25.960Z,28.23
2023-04-16T22:06:00.720Z,27.23
2023-04-16T22:08:28.547Z,32.53
2023-04-16T22:10:59.477Z,30.27
2023-04-16T22:13:26.229Z,29.30
2023-04-16T22:15:53.488Z,27.77
2023-04-16T22:18:20.218Z,26.03
2023-04-16T22:20:47.190Z,22.97
2023-04-16T22:23:14.019Z,21.47
2023-04-16T22:25:40.776Z,20.83
2023-04-16T22:28:07.531Z,21.97
2023-04-16T22:30:34.175Z,22.40
2023-04-16T22:33:00.899Z,23.63
2023-04-16T22:35:28.031Z,21.80
2023-04-16T22:37:54.799Z,23.07
2023-04-16T22:40:21.410Z,21.20
2023-04-16T22:42:48.062Z,22.30
2023-04-16T22:45:15.118Z,24.23
2023-04-16T22:47:41.874Z,23.10
2023-04-16T22:50:10.617Z,23.80
2023-04-16T22:52:37.258Z,23.27
2023-04-16T22:55:04.346Z,22.47
2023-04-16T22:57:31.000Z,22.37
2023-04-16T22:59:57.767Z,24.53
2023-04-16T23:02:24.454Z,23.03
2023-04-16T23:04:51.216Z,23.70
2023-04-16T23:07:18.446Z,23.77
2023-04-16T23:09:45.150Z,24.37
2023-04-16T23:12:11.777Z,25.13
2023-04-16T23:14:38.456Z,25.77
2023-04-16T23:17:05.296Z,23.83
2023-04-16T23:19:31.910Z,25.50
2023-04-16T23:21:58.700Z,23.87
2023-04-16T23:24:25.372Z,25.10
2023-04-16T23:26:52.639Z,26.47
2023-04-16T23:29:20.459Z,24.20
2023-04-16T23:31:47.793Z,25.60
2023-04-16T23:34:14.595Z,25.87
2023-04-16T23:36:41.668Z,26.70
2023-04-16T23:39:08.318Z,26.10
2023-04-16T23:41:35.156Z,27.13
2023-04-16T23:44:02.058Z,27.00
2023-04-16T23:46:28.760Z,27.70
2023-04-16T23:48:55.550Z,28.50
2023-04-16T23:51:22.509Z,29.93
2023-04-16T23:53:49.135Z,30.30
2023-04-16T23:56:16.502Z,32.63
2023-04-16T23:58:43.148Z,34.70
